Aviation Digital Data Service (ADDS)

Output produced by METARs form (2021 UTC 20 August 2019)
found at http://www.aviationweather.gov/metar/data/
 
METAR text: FQMA 202000Z 19006KT CAVOK 17/13 Q1031 NOSIG
Conditions at: FQMA (MAPUTO/MAVALANE , MZ) observed 2000 UTC 20 August 2019
Temperature: 17.0°C (63°F)
Dewpoint: 13.0°C (55°F) [RH = 77%]
Pressure (altimeter): 30.44 inches Hg (1031.0 mb)
Winds: from the S (190 degrees) at 7 MPH (6 knots; 3.1 m/s)
Visibility: 6 or more miles (10+ km)
Ceiling: ceiling and visibility are OK
Clouds: unknown
Weather: no significant weather observed at this time

METAR text: FQMA 201900Z 16009KT 9999 FEW020 19/14 Q1030 NOSIG
Conditions at: FQMA (MAPUTO/MAVALANE , MZ) observed 1900 UTC 20 August 2019
Temperature: 19.0°C (66°F)
Dewpoint: 14.0°C (57°F) [RH = 73%]
Pressure (altimeter): 30.41 inches Hg (1030.0 mb)
Winds: from the SSE (160 degrees) at 10 MPH (9 knots; 4.6 m/s)
Visibility: 6 or more miles (10+ km)
Ceiling: at least 12,000 feet AGL
Clouds: few clouds at 2000 feet AGL
Weather: no significant weather observed at this time

METAR text: FQMA 201800Z 19011KT 9999 FEW020 20/14 Q1029 NOSIG
Conditions at: FQMA (MAPUTO/MAVALANE , MZ) observed 1800 UTC 20 August 2019
Temperature: 20.0°C (68°F)
Dewpoint: 14.0°C (57°F) [RH = 68%]
Pressure (altimeter): 30.38 inches Hg (1029.0 mb)
Winds: from the S (190 degrees) at 13 MPH (11 knots; 5.7 m/s)
Visibility: 6 or more miles (10+ km)
Ceiling: at least 12,000 feet AGL
Clouds: few clouds at 2000 feet AGL
Weather: no significant weather observed at this time

METAR text: FQMA 201700Z 14014KT 9999 FEW020 21/14 Q1029 NOSIG RMK MAX 22KT
Conditions at: FQMA (MAPUTO/MAVALANE , MZ) observed 1700 UTC 20 August 2019
Temperature: 21.0°C (70°F)
Dewpoint: 14.0°C (57°F) [RH = 64%]
Pressure (altimeter): 30.38 inches Hg (1029.0 mb)
Winds: from the SE (140 degrees) at 16 MPH (14 knots; 7.2 m/s)
Visibility: 6 or more miles (10+ km)
Ceiling: at least 12,000 feet AGL
Clouds: few clouds at 2000 feet AGL
Weather: no significant weather observed at this time

METAR text: FQMA 201600Z 12009G20KT 9999 FEW020 21/12 Q1028 NOSIG RMK QNH TENDS Q1029
Conditions at: FQMA (MAPUTO/MAVALANE , MZ) observed 1600 UTC 20 August 2019
Temperature: 21.0°C (70°F)
Dewpoint: 12.0°C (54°F) [RH = 56%]
Pressure (altimeter): 30.35 inches Hg (1028.0 mb)
Winds: from the ESE (120 degrees) at 10 MPH (9 knots; 4.6 m/s)
gusting to 23 MPH (20 knots; 10.3 m/s)
Visibility: 6 or more miles (10+ km)
Ceiling: at least 12,000 feet AGL
Clouds: few clouds at 2000 feet AGL
Weather: no significant weather observed at this time

METAR text: FQMA 201500Z 11008KT 9999 FEW020 22/10 Q1028 NOSIG
Conditions at: FQMA (MAPUTO/MAVALANE , MZ) observed 1500 UTC 20 August 2019
Temperature: 22.0°C (72°F)
Dewpoint: 10.0°C (50°F) [RH = 46%]
Pressure (altimeter): 30.35 inches Hg (1028.0 mb)
Winds: from the ESE (110 degrees) at 9 MPH (8 knots; 4.1 m/s)
Visibility: 6 or more miles (10+ km)
Ceiling: at least 12,000 feet AGL
Clouds: few clouds at 2000 feet AGL
Weather: no significant weather observed at this time

METAR text: FQMA 201400Z 11010KT 9999 SCT020 24/13 Q1028 NOSIG
Conditions at: FQMA (MAPUTO/MAVALANE , MZ) observed 1400 UTC 20 August 2019
Temperature: 24.0°C (75°F)
Dewpoint: 13.0°C (55°F) [RH = 50%]
Pressure (altimeter): 30.35 inches Hg (1028.0 mb)
Winds: from the ESE (110 degrees) at 12 MPH (10 knots; 5.1 m/s)
Visibility: 6 or more miles (10+ km)
Ceiling: at least 12,000 feet AGL
Clouds: scattered clouds at 2000 feet AGL
Weather: no significant weather observed at this time

METAR text: FQMA 201300Z 10009KT 9999 BKN020 24/11 Q1027 NOSIG
Conditions at: FQMA (MAPUTO/MAVALANE , MZ) observed 1300 UTC 20 August 2019
Temperature: 24.0°C (75°F)
Dewpoint: 11.0°C (52°F) [RH = 44%]
Pressure (altimeter): 30.32 inches Hg (1027.0 mb)
Winds: from the E (100 degrees) at 10 MPH (9 knots; 4.6 m/s)
Visibility: 6 or more miles (10+ km)
Ceiling: 2000 feet AGL
Clouds: broken clouds at 2000 feet AGL
Weather: no significant weather observed at this time

METAR text: FQMA 201200Z 11007KT 9999 BKN020 24/14 Q1028 NOSIG RMK QNH TENDS Q1027
Conditions at: FQMA (MAPUTO/MAVALANE , MZ) observed 1200 UTC 20 August 2019
Temperature: 24.0°C (75°F)
Dewpoint: 14.0°C (57°F) [RH = 54%]
Pressure (altimeter): 30.35 inches Hg (1028.0 mb)
Winds: from the ESE (110 degrees) at 8 MPH (7 knots; 3.6 m/s)
Visibility: 6 or more miles (10+ km)
Ceiling: 2000 feet AGL
Clouds: broken clouds at 2000 feet AGL
Weather: no significant weather observed at this time

METAR text: FQMA 201100Z 10008KT 070V150 9999 BKN020 24/13 Q1028 NOSIG
Conditions at: FQMA (MAPUTO/MAVALANE , MZ) observed 1100 UTC 20 August 2019
Temperature: 24.0°C (75°F)
Dewpoint: 13.0°C (55°F) [RH = 50%]
Pressure (altimeter): 30.35 inches Hg (1028.0 mb)
Winds: from the E (100 degrees) at 9 MPH (8 knots; 4.1 m/s)
Visibility: 6 or more miles (10+ km)
Ceiling: 2000 feet AGL
Clouds: broken clouds at 2000 feet AGL
Weather: no significant weather observed at this time

METAR text: FQMA 201000Z 12006KT 9999 BKN020 25/14 Q1028 NOSIG
Conditions at: FQMA (MAPUTO/MAVALANE , MZ) observed 1000 UTC 20 August 2019
Temperature: 25.0°C (77°F)
Dewpoint: 14.0°C (57°F) [RH = 50%]
Pressure (altimeter): 30.35 inches Hg (1028.0 mb)
Winds: from the ESE (120 degrees) at 7 MPH (6 knots; 3.1 m/s)
Visibility: 6 or more miles (10+ km)
Ceiling: 2000 feet AGL
Clouds: broken clouds at 2000 feet AGL
Weather: no significant weather observed at this time

METAR text: FQMA 200900Z 13010KT 9999 BKN020 24/12 Q1029 NOSIG
Conditions at: FQMA (MAPUTO/MAVALANE , MZ) observed 0900 UTC 20 August 2019
Temperature: 24.0°C (75°F)
Dewpoint: 12.0°C (54°F) [RH = 47%]
Pressure (altimeter): 30.38 inches Hg (1029.0 mb)
Winds: from the SE (130 degrees) at 12 MPH (10 knots; 5.1 m/s)
Visibility: 6 or more miles (10+ km)
Ceiling: 2000 feet AGL
Clouds: broken clouds at 2000 feet AGL
Weather: no significant weather observed at this time

METAR text: FQMA 200800Z 16013KT 9999 BKN020 23/13 Q1029 NOSIG
Conditions at: FQMA (MAPUTO/MAVALANE , MZ) observed 0800 UTC 20 August 2019
Temperature: 23.0°C (73°F)
Dewpoint: 13.0°C (55°F) [RH = 53%]
Pressure (altimeter): 30.38 inches Hg (1029.0 mb)
Winds: from the SSE (160 degrees) at 15 MPH (13 knots; 6.7 m/s)
Visibility: 6 or more miles (10+ km)
Ceiling: 2000 feet AGL
Clouds: broken clouds at 2000 feet AGL
Weather: no significant weather observed at this time

METAR text: FQMA 200700Z 18014KT 9999 BKN020 22/13 Q1029 NOSIG
Conditions at: FQMA (MAPUTO/MAVALANE , MZ) observed 0700 UTC 20 August 2019
Temperature: 22.0°C (72°F)
Dewpoint: 13.0°C (55°F) [RH = 57%]
Pressure (altimeter): 30.38 inches Hg (1029.0 mb)
Winds: from the S (180 degrees) at 16 MPH (14 knots; 7.2 m/s)
Visibility: 6 or more miles (10+ km)
Ceiling: 2000 feet AGL
Clouds: broken clouds at 2000 feet AGL
Weather: no significant weather observed at this time

METAR text: FQMA 200600Z 18013KT 9999 BKN020 20/13 Q1028 NOSIG
Conditions at: FQMA (MAPUTO/MAVALANE , MZ) observed 0600 UTC 20 August 2019
Temperature: 20.0°C (68°F)
Dewpoint: 13.0°C (55°F) [RH = 64%]
Pressure (altimeter): 30.35 inches Hg (1028.0 mb)
Winds: from the S (180 degrees) at 15 MPH (13 knots; 6.7 m/s)
Visibility: 6 or more miles (10+ km)
Ceiling: 2000 feet AGL
Clouds: broken clouds at 2000 feet AGL
Weather: no significant weather observed at this time

METAR text: FQMA 200500Z 18013KT 9999 BKN020 20/13 Q1028 NOSIG
Conditions at: FQMA (MAPUTO/MAVALANE , MZ) observed 0500 UTC 20 August 2019
Temperature: 20.0°C (68°F)
Dewpoint: 13.0°C (55°F) [RH = 64%]
Pressure (altimeter): 30.35 inches Hg (1028.0 mb)
Winds: from the S (180 degrees) at 15 MPH (13 knots; 6.7 m/s)
Visibility: 6 or more miles (10+ km)
Ceiling: 2000 feet AGL
Clouds: broken clouds at 2000 feet AGL
Weather: no significant weather observed at this time

METAR text: FQMA 200400Z 18013KT 9999 OVC020 20/13 Q1027 NOSIG
Conditions at: FQMA (MAPUTO/MAVALANE , MZ) observed 0400 UTC 20 August 2019
Temperature: 20.0°C (68°F)
Dewpoint: 13.0°C (55°F) [RH = 64%]
Pressure (altimeter): 30.32 inches Hg (1027.0 mb)
Winds: from the S (180 degrees) at 15 MPH (13 knots; 6.7 m/s)
Visibility: 6 or more miles (10+ km)
Ceiling: 2000 feet AGL
Clouds: overcast cloud deck at 2000 feet AGL
Weather: no significant weather observed at this time

METAR text: FQMA 200300Z 18011KT 9999 BKN020 21/14 Q1026 NOSIG
Conditions at: FQMA (MAPUTO/MAVALANE , MZ) observed 0300 UTC 20 August 2019
Temperature: 21.0°C (70°F)
Dewpoint: 14.0°C (57°F) [RH = 64%]
Pressure (altimeter): 30.30 inches Hg (1026.0 mb)
Winds: from the S (180 degrees) at 13 MPH (11 knots; 5.7 m/s)
Visibility: 6 or more miles (10+ km)
Ceiling: 2000 feet AGL
Clouds: broken clouds at 2000 feet AGL
Weather: no significant weather observed at this time

METAR text: FQMA 200200Z 18011KT 9999 BKN020 21/14 Q1026 NOSIG
Conditions at: FQMA (MAPUTO/MAVALANE , MZ) observed 0200 UTC 20 August 2019
Temperature: 21.0°C (70°F)
Dewpoint: 14.0°C (57°F) [RH = 64%]
Pressure (altimeter): 30.30 inches Hg (1026.0 mb)
Winds: from the S (180 degrees) at 13 MPH (11 knots; 5.7 m/s)
Visibility: 6 or more miles (10+ km)
Ceiling: 2000 feet AGL
Clouds: broken clouds at 2000 feet AGL
Weather: no significant weather observed at this time

METAR text: FQMA 200100Z 17011KT 9999 BKN020 21/14 Q1026 NOSIG
Conditions at: FQMA (MAPUTO/MAVALANE , MZ) observed 0100 UTC 20 August 2019
Temperature: 21.0°C (70°F)
Dewpoint: 14.0°C (57°F) [RH = 64%]
Pressure (altimeter): 30.30 inches Hg (1026.0 mb)
Winds: from the S (170 degrees) at 13 MPH (11 knots; 5.7 m/s)
Visibility: 6 or more miles (10+ km)
Ceiling: 2000 feet AGL
Clouds: broken clouds at 2000 feet AGL
Weather: no significant weather observed at this time

METAR text: FQMA 200000Z 16013KT 9999 BKN020 21/14 Q1026 NOSIG
Conditions at: FQMA (MAPUTO/MAVALANE , MZ) observed 0000 UTC 20 August 2019
Temperature: 21.0°C (70°F)
Dewpoint: 14.0°C (57°F) [RH = 64%]
Pressure (altimeter): 30.30 inches Hg (1026.0 mb)
Winds: from the SSE (160 degrees) at 15 MPH (13 knots; 6.7 m/s)
Visibility: 6 or more miles (10+ km)
Ceiling: 2000 feet AGL
Clouds: broken clouds at 2000 feet AGL
Weather: no significant weather observed at this time

METAR text: FQMA 192300Z 17012KT 9999 BKN020 21/15 Q1026 NOSIG
Conditions at: FQMA (MAPUTO/MAVALANE , MZ) observed 2300 UTC 19 August 2019
Temperature: 21.0°C (70°F)
Dewpoint: 15.0°C (59°F) [RH = 69%]
Pressure (altimeter): 30.30 inches Hg (1026.0 mb)
Winds: from the S (170 degrees) at 14 MPH (12 knots; 6.2 m/s)
Visibility: 6 or more miles (10+ km)
Ceiling: 2000 feet AGL
Clouds: broken clouds at 2000 feet AGL
Weather: no significant weather observed at this time

METAR text: FQMA 192200Z 16011KT 9999 BKN020 21/16 Q1025 NOSIG
Conditions at: FQMA (MAPUTO/MAVALANE , MZ) observed 2200 UTC 19 August 2019
Temperature: 21.0°C (70°F)
Dewpoint: 16.0°C (61°F) [RH = 73%]
Pressure (altimeter): 30.27 inches Hg (1025.0 mb)
Winds: from the SSE (160 degrees) at 13 MPH (11 knots; 5.7 m/s)
Visibility: 6 or more miles (10+ km)
Ceiling: 2000 feet AGL
Clouds: broken clouds at 2000 feet AGL
Weather: no significant weather observed at this time

METAR text: FQMA 192100Z 17012KT 9999 FEW025 21/17 Q1025 NOSIG
Conditions at: FQMA (MAPUTO/MAVALANE , MZ) observed 2100 UTC 19 August 2019
Temperature: 21.0°C (70°F)
Dewpoint: 17.0°C (63°F) [RH = 78%]
Pressure (altimeter): 30.27 inches Hg (1025.0 mb)
Winds: from the S (170 degrees) at 14 MPH (12 knots; 6.2 m/s)
Visibility: 6 or more miles (10+ km)
Ceiling: at least 12,000 feet AGL
Clouds: few clouds at 2500 feet AGL
Weather: no significant weather observed at this time

METAR text: FQMA 192000Z 17011KT 9999 FEW025 21/17 Q1024 NOSIG
Conditions at: FQMA (MAPUTO/MAVALANE , MZ) observed 2000 UTC 19 August 2019
Temperature: 21.0°C (70°F)
Dewpoint: 17.0°C (63°F) [RH = 78%]
Pressure (altimeter): 30.24 inches Hg (1024.0 mb)
Winds: from the S (170 degrees) at 13 MPH (11 knots; 5.7 m/s)
Visibility: 6 or more miles (10+ km)
Ceiling: at least 12,000 feet AGL
Clouds: few clouds at 2500 feet AGL
Weather: no significant weather observed at this time

METAR text: FQMA 191900Z 16013KT 9999 FEW020 22/18 Q1023 NOSIG
Conditions at: FQMA (MAPUTO/MAVALANE , MZ) observed 1900 UTC 19 August 2019
Temperature: 22.0°C (72°F)
Dewpoint: 18.0°C (64°F) [RH = 78%]
Pressure (altimeter): 30.21 inches Hg (1023.0 mb)
Winds: from the SSE (160 degrees) at 15 MPH (13 knots; 6.7 m/s)
Visibility: 6 or more miles (10+ km)
Ceiling: at least 12,000 feet AGL
Clouds: few clouds at 2000 feet AGL
Weather: no significant weather observed at this time

METAR text: FQMA 191800Z 15012KT CAVOK 22/18 Q1023 NOSIG
Conditions at: FQMA (MAPUTO/MAVALANE , MZ) observed 1800 UTC 19 August 2019
Temperature: 22.0°C (72°F)
Dewpoint: 18.0°C (64°F) [RH = 78%]
Pressure (altimeter): 30.21 inches Hg (1023.0 mb)
Winds: from the SSE (150 degrees) at 14 MPH (12 knots; 6.2 m/s)
Visibility: 6 or more miles (10+ km)
Ceiling: ceiling and visibility are OK
Clouds: unknown
Weather: no significant weather observed at this time

METAR text: FQMA 191700Z 14012KT CAVOK 23/18 Q1021 NOSIG
Conditions at: FQMA (MAPUTO/MAVALANE , MZ) observed 1700 UTC 19 August 2019
Temperature: 23.0°C (73°F)
Dewpoint: 18.0°C (64°F) [RH = 73%]
Pressure (altimeter): 30.15 inches Hg (1021.0 mb)
Winds: from the SE (140 degrees) at 14 MPH (12 knots; 6.2 m/s)
Visibility: 6 or more miles (10+ km)
Ceiling: ceiling and visibility are OK
Clouds: unknown
Weather: no significant weather observed at this time

METAR text: FQMA 191600Z 10010KT 070V160 9999 FEW020 23/19 Q1019 NOSIG
Conditions at: FQMA (MAPUTO/MAVALANE , MZ) observed 1600 UTC 19 August 2019
Temperature: 23.0°C (73°F)
Dewpoint: 19.0°C (66°F) [RH = 78%]
Pressure (altimeter): 30.09 inches Hg (1019.0 mb)
Winds: from the E (100 degrees) at 12 MPH (10 knots; 5.1 m/s)
Visibility: 6 or more miles (10+ km)
Ceiling: at least 12,000 feet AGL
Clouds: few clouds at 2000 feet AGL
Weather: no significant weather observed at this time

METAR text: FQMA 191500Z 09011KT 9000 NSC 27/16 Q1017 NPSIG RMK FU
Conditions at: FQMA (MAPUTO/MAVALANE , MZ) observed 1500 UTC 19 August 2019
Temperature: 27.0°C (81°F)
Dewpoint: 16.0°C (61°F) [RH = 51%]
Pressure (altimeter): 30.03 inches Hg (1017.0 mb)
Winds: from the E (90 degrees) at 13 MPH (11 knots; 5.7 m/s)
Visibility: 6 miles ( 9 km)
Ceiling: at least 12,000 feet AGL
Clouds: sky clear below 12,000 feet AGL
Weather: no significant weather observed at this time

METAR text: FQMA 191400Z 07011KT 9000 NSC 29/17 Q1016 NOSIG RMK FU
Conditions at: FQMA (MAPUTO/MAVALANE , MZ) observed 1400 UTC 19 August 2019
Temperature: 29.0°C (84°F)
Dewpoint: 17.0°C (63°F) [RH = 48%]
Pressure (altimeter): 30.00 inches Hg (1016.0 mb)
Winds: from the ENE (70 degrees) at 13 MPH (11 knots; 5.7 m/s)
Visibility: 6 miles ( 9 km)
Ceiling: at least 12,000 feet AGL
Clouds: sky clear below 12,000 feet AGL
Weather: no significant weather observed at this time

METAR text: FQMA 191300Z 36009KT CAVOK 34/10 Q1016 NOSIG
Conditions at: FQMA (MAPUTO/MAVALANE , MZ) observed 1300 UTC 19 August 2019
Temperature: 34.0°C (93°F)
Dewpoint: 10.0°C (50°F) [RH = 23%]
Pressure (altimeter): 30.00 inches Hg (1016.0 mb)
Winds: from the N (360 degrees) at 10 MPH (9 knots; 4.6 m/s)
Visibility: 6 or more miles (10+ km)
Ceiling: ceiling and visibility are OK
Clouds: unknown
Weather: no significant weather observed at this time

METAR text: FQMA 191200Z 35010KT CAVOK 33/11 Q1016 NOSIG
Conditions at: FQMA (MAPUTO/MAVALANE , MZ) observed 1200 UTC 19 August 2019
Temperature: 33.0°C (91°F)
Dewpoint: 11.0°C (52°F) [RH = 26%]
Pressure (altimeter): 30.00 inches Hg (1016.0 mb)
Winds: from the N (350 degrees) at 12 MPH (10 knots; 5.1 m/s)
Visibility: 6 or more miles (10+ km)
Ceiling: ceiling and visibility are OK
Clouds: unknown
Weather: no significant weather observed at this time

METAR text: FQMA 181100Z 34010KT CAVOK 32/12 Q1018 NOSIG
Conditions at: FQMA (MAPUTO/MAVALANE , MZ) observed 1100 UTC 19 August 2019
Temperature: 32.0°C (90°F)
Dewpoint: 12.0°C (54°F) [RH = 30%]
Pressure (altimeter): 30.06 inches Hg (1018.0 mb)
Winds: from the NNW (340 degrees) at 12 MPH (10 knots; 5.1 m/s)
Visibility: 6 or more miles (10+ km)
Ceiling: ceiling and visibility are OK
Clouds: unknown
Weather: no significant weather observed at this time

METAR text: FQMA 191000Z 33012KT CAVOK 30/12 Q1019 NOSIG
Conditions at: FQMA (MAPUTO/MAVALANE , MZ) observed 1000 UTC 19 August 2019
Temperature: 30.0°C (86°F)
Dewpoint: 12.0°C (54°F) [RH = 33%]
Pressure (altimeter): 30.09 inches Hg (1019.0 mb)
Winds: from the NNW (330 degrees) at 14 MPH (12 knots; 6.2 m/s)
Visibility: 6 or more miles (10+ km)
Ceiling: ceiling and visibility are OK
Clouds: unknown
Weather: no significant weather observed at this time

METAR text: FQMA 190900Z 33016KT CAVOK 27/13 Q1020 NOSIG
Conditions at: FQMA (MAPUTO/MAVALANE , MZ) observed 0900 UTC 19 August 2019
Temperature: 27.0°C (81°F)
Dewpoint: 13.0°C (55°F) [RH = 42%]
Pressure (altimeter): 30.12 inches Hg (1020.0 mb)
Winds: from the NNW (330 degrees) at 18 MPH (16 knots; 8.2 m/s)
Visibility: 6 or more miles (10+ km)
Ceiling: ceiling and visibility are OK
Clouds: unknown
Weather: no significant weather observed at this time

Forecast for: FQMA (MAPUTO/MAVALANE , MZ)
Text: TAF FQMA 201600Z 2018/2124 13006KT 9999 FEW020 TX24/2113Z TN17/2103Z
Forecast period: 1800 UTC 20 August 2019 to 0000 UTC 21 August 2019
Forecast type: FROM: standard forecast or significant change
Winds: from the SE (130 degrees) at 7 MPH (6 knots; 3.1 m/s)
Visibility: 6 or more miles 10+ km)
Ceiling: at least 12,000 feet AGL
Clouds: few clouds at 2000 feet AGL
Weather: no significant weather forecast for this period
Text: BECMG 2100/2102 24008KT CAVOK
Forecast period: 0000 to 1200 UTC 21 August 2019
Forecast type: BECOMING: Conditions expected to become as follows by 0200 UTC 21 August 2019
Winds: from the WSW (240 degrees) at 9 MPH (8 knots; 4.1 m/s)
Visibility: 6 or more miles 10+ km)
Ceiling: unknown
Clouds: missing
Weather: NSW  (no significant weather)
Text: BECMG 2112/2114 16006KT
Forecast period: 1200 to 1800 UTC 21 August 2019
Forecast type: BECOMING: Conditions expected to become as follows by 1400 UTC 21 August 2019
Winds: from the SSE (160 degrees) at 7 MPH (6 knots; 3.1 m/s)
Visibility: 6 or more miles 10+ km)
Ceiling: unknown
Clouds: missing
Weather: NSW  (no significant weather)
Text: BECMG 2118/2120 10006KT
Forecast period: 1800 UTC 21 August 2019 to 0000 UTC 22 August 2019
Forecast type: BECOMING: Conditions expected to become as follows by 2000 UTC 21 August 2019
Winds: from the E (100 degrees) at 7 MPH (6 knots; 3.1 m/s)
Visibility: 6 or more miles 10+ km)
Ceiling: unknown
Clouds: missing
Weather: NSW  (no significant weather)